Time;durP1;ratioP1;P1;durP2;ratioP2;P2;SDS_P1;SDS_P2;PMS_P1;PMS_P2;Temp;Humidity;BMP_temperature;BMP_pressure;BME280_temperature;BME280_humidity;BME280_pressure;Samples;Min_cycle;Max_cycle;Signal;HPM_P1;HPM_P2
2022/12/08 00:00:23;;;;;;;54.10;40.55;;;2.90;99.90;;;;;;5072799;28;20067;-77
2022/12/08 00:02:49;;;;;;;54.13;39.40;;;3.00;99.90;;;;;;5072038;28;20024;-77
2022/12/08 00:10:43;;;;;;;54.10;40.05;;;3.00;99.90;;;;;;5077430;28;20044;-77
2022/12/08 00:13:10;;;;;;;55.38;39.42;;;3.00;99.90;;;;;;5071915;28;20024;-77
2022/12/08 00:15:35;;;;;;;51.10;38.17;;;3.00;99.90;;;;;;5075222;28;20028;-77
2022/12/08 00:18:01;;;;;;;56.30;38.10;;;3.00;99.90;;;;;;5072253;28;20040;-77
2022/12/08 00:20:28;;;;;;;50.17;37.28;;;3.00;99.90;;;;;;5062023;28;20027;-77
2022/12/08 00:22:53;;;;;;;59.03;41.15;;;3.10;99.90;;;;;;5072371;28;20075;-77
2022/12/08 00:25:19;;;;;;;50.80;37.40;;;3.20;99.90;;;;;;5068129;28;20049;-77
2022/12/08 00:27:45;;;;;;;54.92;39.17;;;3.20;99.90;;;;;;5063645;28;20123;-77
2022/12/08 00:30:11;;;;;;;55.05;38.40;;;3.30;99.90;;;;;;5076921;28;20052;-77
2022/12/08 00:32:37;;;;;;;53.53;37.67;;;3.40;99.90;;;;;;5060771;28;20393;-77
2022/12/08 00:35:03;;;;;;;51.97;38.55;;;3.40;99.90;;;;;;5071435;28;20029;-77
2022/12/08 00:37:29;;;;;;;52.20;37.35;;;3.50;99.90;;;;;;5072896;28;20019;-77
2022/12/08 00:39:55;;;;;;;55.47;38.03;;;3.50;99.90;;;;;;5064081;28;20028;-77
2022/12/08 00:42:20;;;;;;;47.88;36.35;;;3.60;99.90;;;;;;5072012;28;20066;-76
2022/12/08 00:44:47;;;;;;;49.03;35.22;;;3.60;99.90;;;;;;5064961;28;20036;-76
2022/12/08 00:47:13;;;;;;;41.53;32.90;;;3.70;99.90;;;;;;5073876;28;20024;-76
2022/12/08 00:49:40;;;;;;;43.95;30.13;;;3.70;99.90;;;;;;5076968;28;20028;-76
2022/12/08 00:52:06;;;;;;;36.03;28.38;;;3.80;99.90;;;;;;5067446;28;20512;-76
2022/12/08 00:54:32;;;;;;;40.97;28.80;;;3.90;99.90;;;;;;5074402;28;20036;-76
2022/12/08 00:56:58;;;;;;;36.70;28.52;;;3.90;99.90;;;;;;5071904;28;20037;-76
2022/12/08 00:59:24;;;;;;;39.45;27.10;;;4.00;99.90;;;;;;5072056;28;20020;-76
2022/12/08 01:01:50;;;;;;;36.88;26.58;;;4.00;99.90;;;;;;5065330;28;20042;-77
2022/12/08 01:04:17;;;;;;;35.67;24.80;;;4.10;99.90;;;;;;5076328;28;20023;-77
2022/12/08 01:06:44;;;;;;;31.02;24.92;;;4.10;99.90;;;;;;5073042;28;20063;-77
2022/12/08 01:09:11;;;;;;;33.72;25.48;;;4.10;99.90;;;;;;5076425;28;20063;-77
2022/12/08 01:11:37;;;;;;;34.80;25.20;;;4.20;99.90;;;;;;5071915;28;20025;-77
2022/12/08 01:14:03;;;;;;;29.58;23.67;;;4.20;99.90;;;;;;5073794;28;20043;-76
2022/12/08 01:16:32;;;;;;;36.88;24.58;;;4.20;99.90;;;;;;5063468;28;20025;-76
2022/12/08 01:18:59;;;;;;;30.92;22.45;;;4.30;99.90;;;;;;5063874;28;20032;-77
2022/12/08 01:21:26;;;;;;;24.17;20.13;;;4.40;99.90;;;;;;5066383;28;20060;-77
2022/12/08 01:23:51;;;;;;;26.70;19.88;;;4.50;99.90;;;;;;5059534;28;20501;-77
2022/12/08 01:26:18;;;;;;;23.52;18.13;;;4.70;99.90;;;;;;5070675;28;20390;-77
2022/12/08 01:28:45;;;;;;;24.63;18.70;;;4.80;99.90;;;;;;5067174;28;20084;-77
2022/12/08 01:31:16;;;;;;;22.45;17.15;;;4.90;99.90;;;;;;5067384;28;20036;-77
2022/12/08 01:33:43;;;;;;;25.38;16.20;;;5.00;99.90;;;;;;5059370;28;20055;-77
2022/12/08 01:36:25;;;;;;;20.30;16.27;;;5.10;99.90;;;;;;5067786;28;20033;-77
2022/12/08 01:38:52;;;;;;;21.08;16.10;;;5.20;99.90;;;;;;5072523;28;20538;-76
2022/12/08 01:41:21;;;;;;;22.98;15.43;;;5.20;99.90;;;;;;5060199;28;20108;-77
2022/12/08 01:44:00;;;;;;;20.13;15.50;;;5.30;99.90;;;;;;5068193;28;20024;-76
2022/12/08 01:46:28;;;;;;;18.73;14.95;;;5.30;99.90;;;;;;5065562;28;20084;-76
2022/12/08 01:49:16;;;;;;;18.02;15.60;;;5.40;99.90;;;;;;5065969;28;20063;-77
2022/12/08 01:51:55;;;;;;;19.00;15.38;;;5.40;99.90;;;;;;5071059;28;20036;-76
2022/12/08 01:54:27;;;;;;;20.80;14.90;;;5.40;99.90;;;;;;5063702;28;20040;-76
2022/12/08 01:57:02;;;;;;;23.77;15.00;;;5.40;99.90;;;;;;5070846;28;20028;-76
2022/12/08 01:59:29;;;;;;;19.65;14.23;;;5.50;99.90;;;;;;5068576;28;20048;-76
2022/12/08 02:01:56;;;;;;;20.27;14.77;;;5.50;99.90;;;;;;5068233;28;20052;-77
2022/12/08 02:04:21;;;;;;;17.17;13.95;;;5.50;99.90;;;;;;5066081;28;20041;-77
2022/12/08 02:06:49;;;;;;;19.13;13.65;;;5.50;99.90;;;;;;5066943;28;20408;-76
2022/12/08 02:09:16;;;;;;;21.20;14.68;;;5.50;99.90;;;;;;5058957;28;20036;-78
2022/12/08 02:11:41;;;;;;;17.63;14.32;;;5.50;99.90;;;;;;5068894;28;20455;-77
2022/12/08 02:14:10;;;;;;;18.75;13.80;;;5.50;99.90;;;;;;5073860;28;20028;-77
2022/12/08 02:16:52;;;;;;;19.55;14.00;;;5.50;99.90;;;;;;5071581;28;20082;-77
2022/12/08 02:19:26;;;;;;;19.02;14.02;;;5.50;99.90;;;;;;5059623;28;20028;-76
2022/12/08 02:22:30;;;;;;;23.10;14.70;;;5.50;99.90;;;;;;5066231;28;20029;-76
2022/12/08 02:25:21;;;;;;;18.45;14.23;;;5.50;99.90;;;;;;5078321;28;20067;-77
2022/12/08 02:28:17;;;;;;;15.90;13.10;;;5.50;99.90;;;;;;5062501;28;20021;-77
2022/12/08 02:30:52;;;;;;;15.35;12.35;;;5.50;99.90;;;;;;5066886;28;20036;-77
2022/12/08 02:33:27;;;;;;;16.55;13.55;;;5.50;99.90;;;;;;5060888;28;20021;-77
2022/12/08 02:35:53;;;;;;;15.50;13.13;;;5.50;99.90;;;;;;5062313;28;20083;-76
2022/12/08 02:38:28;;;;;;;19.15;13.43;;;5.50;99.90;;;;;;5066278;28;20025;-77
2022/12/08 02:41:13;;;;;;;17.15;14.73;;;5.50;99.90;;;;;;5068501;28;20435;-77
2022/12/08 02:43:52;;;;;;;19.45;13.00;;;5.50;99.90;;;;;;5068497;28;20070;-76
2022/12/08 02:46:42;;;;;;;15.45;13.27;;;5.50;99.90;;;;;;5071422;28;20016;-76
2022/12/08 02:49:08;;;;;;;17.43;13.20;;;5.50;99.90;;;;;;5065718;28;20091;-76
2022/12/08 02:51:34;;;;;;;16.05;12.60;;;5.50;99.90;;;;;;5074323;28;20021;-77
2022/12/08 02:54:01;;;;;;;20.02;13.27;;;5.50;99.90;;;;;;5071925;28;20040;-77
2022/12/08 02:56:59;;;;;;;13.82;11.85;;;5.50;99.90;;;;;;5071000;28;20078;-77
2022/12/08 02:59:36;;;;;;;15.60;12.77;;;5.50;99.90;;;;;;5063194;28;20051;-77
2022/12/08 03:02:33;;;;;;;15.20;12.32;;;5.60;99.90;;;;;;5067804;28;20013;-77
2022/12/08 03:05:18;;;;;;;13.75;11.25;;;5.60;99.90;;;;;;5059785;28;20040;-77
2022/12/08 03:07:54;;;;;;;14.60;12.18;;;5.60;99.90;;;;;;5069397;28;20035;-78
2022/12/08 03:10:34;;;;;;;15.57;12.05;;;5.60;99.90;;;;;;5061030;28;20049;-76
2022/12/08 03:13:11;;;;;;;14.15;11.75;;;5.70;99.90;;;;;;5070271;28;20033;-77
2022/12/08 03:15:38;;;;;;;17.15;12.85;;;5.70;99.90;;;;;;5058961;28;20029;-77
2022/12/08 03:18:10;;;;;;;15.07;11.82;;;5.70;99.90;;;;;;5068652;28;20064;-76
2022/12/08 03:20:38;;;;;;;17.17;12.82;;;5.70;99.90;;;;;;5071543;28;20107;-77
2022/12/08 03:23:09;;;;;;;16.10;12.85;;;5.70;99.90;;;;;;5063275;28;20028;-76
2022/12/08 03:25:42;;;;;;;16.35;12.23;;;5.70;99.90;;;;;;5063424;28;20050;-77
2022/12/08 03:28:08;;;;;;;16.38;12.60;;;5.70;99.90;;;;;;5067815;28;20016;-77
2022/12/08 03:30:38;;;;;;;14.88;13.07;;;5.70;99.90;;;;;;5071209;28;20025;-77
2022/12/08 03:33:28;;;;;;;19.58;13.80;;;5.70;99.90;;;;;;5066186;28;20099;-77
2022/12/08 03:35:56;;;;;;;21.48;12.88;;;5.70;99.90;;;;;;5063358;28;20083;-77
2022/12/08 03:38:22;;;;;;;17.98;12.95;;;5.70;99.90;;;;;;5075227;28;20023;-77
2022/12/08 03:41:17;;;;;;;16.65;13.23;;;5.70;99.90;;;;;;5068469;28;20402;-77
2022/12/08 03:43:33;;;;;;;17.15;14.02;;;5.70;99.90;;;;;;5067726;28;20032;-76
2022/12/08 03:45:59;;;;;;;18.20;14.02;;;5.70;99.90;;;;;;5073651;28;20037;-76
2022/12/08 03:48:25;;;;;;;22.35;14.32;;;5.70;99.90;;;;;;5078522;28;20060;-77
2022/12/08 03:50:51;;;;;;;17.92;14.10;;;5.60;99.90;;;;;;5064058;28;20043;-77
2022/12/08 03:53:17;;;;;;;21.13;15.75;;;5.60;99.90;;;;;;5079291;28;20033;-77
2022/12/08 03:55:43;;;;;;;19.52;15.25;;;5.60;99.90;;;;;;5064837;28;20033;-77
2022/12/08 03:58:09;;;;;;;19.20;15.20;;;5.60;99.90;;;;;;5072263;28;20031;-77
2022/12/08 04:00:35;;;;;;;16.50;12.68;;;5.60;99.90;;;;;;5069447;28;20020;-77
2022/12/08 04:03:00;;;;;;;20.63;14.52;;;5.50;99.90;;;;;;5073178;28;20017;-76
2022/12/08 04:05:26;;;;;;;19.42;15.07;;;5.50;99.90;;;;;;5068104;28;20021;-77
2022/12/08 04:07:56;;;;;;;18.10;14.85;;;5.50;99.90;;;;;;5072546;28;20017;-77
2022/12/08 04:10:22;;;;;;;37.73;23.10;;;5.50;99.90;;;;;;5071727;28;20055;-76
2022/12/08 04:12:48;;;;;;;19.35;15.63;;;5.40;99.90;;;;;;5065260;28;20600;-77
2022/12/08 04:15:13;;;;;;;199.02;84.78;;;5.40;99.90;;;;;;5062595;28;20033;-76
2022/12/08 04:17:39;;;;;;;67.57;37.15;;;5.40;99.90;;;;;;5065909;28;20021;-77
2022/12/08 04:20:06;;;;;;;242.60;104.45;;;5.40;99.90;;;;;;5062531;28;20055;-77
2022/12/08 04:22:31;;;;;;;136.82;61.28;;;5.40;99.90;;;;;;5068300;28;20013;-77
2022/12/08 04:24:57;;;;;;;76.65;36.97;;;5.40;99.90;;;;;;5064522;28;20050;-77
2022/12/08 04:27:23;;;;;;;50.40;28.48;;;5.40;99.90;;;;;;5069259;28;20501;-77
2022/12/08 04:29:49;;;;;;;113.88;54.05;;;5.40;99.90;;;;;;5063042;28;20034;-77
2022/12/08 04:32:15;;;;;;;471.42;236.75;;;5.40;99.90;;;;;;5068013;28;20100;-77
2022/12/08 04:34:40;;;;;;;164.38;70.55;;;5.40;99.90;;;;;;5063849;28;20020;-77
2022/12/08 04:37:06;;;;;;;26.75;18.25;;;5.40;99.90;;;;;;5067746;28;20081;-78
2022/12/08 04:39:32;;;;;;;151.82;74.45;;;5.40;99.90;;;;;;5069984;28;20074;-77
2022/12/08 04:41:58;;;;;;;110.78;59.80;;;5.40;99.90;;;;;;5075212;28;20043;-76
2022/12/08 04:44:24;;;;;;;131.77;62.85;;;5.30;99.90;;;;;;5074610;28;20031;-77
2022/12/08 04:46:50;;;;;;;305.52;142.95;;;5.30;99.90;;;;;;5071992;28;20017;-77
2022/12/08 04:49:16;;;;;;;312.90;175.88;;;5.30;99.90;;;;;;5076114;28;20035;-77
2022/12/08 04:51:42;;;;;;;64.00;38.75;;;5.20;99.90;;;;;;5072996;28;20507;-77
2022/12/08 04:54:08;;;;;;;113.00;65.45;;;5.20;99.90;;;;;;5076965;28;20211;-76
2022/12/08 04:56:34;;;;;;;217.43;133.43;;;5.10;99.90;;;;;;5074608;28;20105;-77
2022/12/08 04:59:00;;;;;;;108.68;73.75;;;5.10;99.90;;;;;;5076584;28;20484;-77
2022/12/08 05:01:26;;;;;;;49.00;38.95;;;5.00;99.90;;;;;;5072127;28;20473;-76
2022/12/08 05:03:51;;;;;;;57.15;47.85;;;4.90;99.90;;;;;;5075122;28;20447;-77
2022/12/08 05:06:17;;;;;;;27.77;24.23;;;4.80;99.90;;;;;;5067938;28;20023;-77
2022/12/08 05:08:43;;;;;;;48.97;42.83;;;4.80;99.90;;;;;;5064582;28;20039;-77
2022/12/08 05:11:11;;;;;;;25.42;18.67;;;4.70;99.90;;;;;;5060674;28;20028;-77
2022/12/08 05:13:37;;;;;;;24.13;21.55;;;4.60;99.90;;;;;;5070515;28;20048;-77
2022/12/08 05:16:05;;;;;;;42.17;36.95;;;4.50;99.90;;;;;;5063304;28;20032;-78
2022/12/08 05:18:32;;;;;;;25.65;19.17;;;4.60;99.90;;;;;;5070171;28;20067;-77
2022/12/08 05:20:58;;;;;;;26.08;19.42;;;4.70;99.90;;;;;;5067137;28;20021;-77
2022/12/08 05:23:24;;;;;;;98.05;82.55;;;4.80;99.90;;;;;;5062457;28;20025;-77
2022/12/08 05:25:50;;;;;;;20.13;15.93;;;4.80;99.90;;;;;;5065214;28;20044;-77
2022/12/08 05:28:16;;;;;;;45.50;32.38;;;5.00;99.90;;;;;;5067465;28;20029;-77
2022/12/08 05:30:41;;;;;;;29.85;21.67;;;5.00;99.90;;;;;;5065108;28;20021;-77
2022/12/08 05:33:08;;;;;;;23.77;17.42;;;5.00;99.90;;;;;;5064429;28;20025;-78
2022/12/08 05:35:33;;;;;;;28.42;21.23;;;5.10;99.90;;;;;;5072096;28;20028;-78
2022/12/08 05:37:59;;;;;;;23.60;18.13;;;5.10;99.90;;;;;;5061737;28;20569;-77
2022/12/08 05:40:25;;;;;;;29.23;19.20;;;5.20;99.90;;;;;;5070889;28;20024;-77
2022/12/08 05:42:51;;;;;;;33.97;22.13;;;5.30;99.90;;;;;;5073240;28;20021;-77
2022/12/08 05:45:17;;;;;;;33.28;24.77;;;5.40;99.90;;;;;;5069951;28;20025;-77
2022/12/08 05:47:43;;;;;;;30.77;20.48;;;5.50;99.90;;;;;;5073114;28;20025;-78
2022/12/08 05:50:10;;;;;;;30.17;19.30;;;5.60;99.90;;;;;;5063047;28;20079;-77
2022/12/08 05:52:35;;;;;;;24.88;17.23;;;5.60;99.90;;;;;;5069776;28;20111;-77
2022/12/08 05:55:02;;;;;;;29.10;18.75;;;5.70;99.90;;;;;;5065083;28;20052;-78
2022/12/08 05:57:28;;;;;;;27.15;18.73;;;5.70;99.90;;;;;;5064255;28;20052;-78
2022/12/08 05:59:55;;;;;;;32.38;19.42;;;5.80;99.90;;;;;;5081795;28;20028;-78
2022/12/08 06:02:21;;;;;;;25.83;19.08;;;5.90;99.90;;;;;;5064813;28;20024;-78
2022/12/08 06:04:47;;;;;;;34.97;23.92;;;5.90;99.90;;;;;;5069821;28;20050;-77
2022/12/08 06:07:13;;;;;;;30.23;20.52;;;6.00;99.90;;;;;;5061125;28;20077;-77
2022/12/08 06:09:39;;;;;;;32.83;19.50;;;6.00;99.90;;;;;;5067822;28;20040;-77
2022/12/08 06:12:05;;;;;;;32.65;20.58;;;6.10;99.90;;;;;;5068200;28;20039;-78
2022/12/08 06:14:31;;;;;;;35.03;19.77;;;6.10;99.90;;;;;;5070833;28;20019;-78
2022/12/08 06:16:57;;;;;;;31.95;19.95;;;6.20;99.90;;;;;;5069053;28;20495;-78
2022/12/08 06:19:22;;;;;;;29.10;19.52;;;6.20;99.90;;;;;;5068701;28;20017;-78
2022/12/08 06:21:48;;;;;;;28.95;19.45;;;6.30;99.90;;;;;;5068211;28;20572;-77
2022/12/08 06:24:14;;;;;;;35.92;21.30;;;6.30;99.90;;;;;;5071469;28;20028;-78
2022/12/08 06:26:40;;;;;;;32.28;20.42;;;6.40;99.90;;;;;;5063458;28;20128;-77
2022/12/08 06:29:07;;;;;;;33.40;21.33;;;6.40;99.90;;;;;;5059372;28;20489;-77
2022/12/08 06:31:33;;;;;;;32.00;19.48;;;6.40;99.90;;;;;;5066304;28;20098;-78
2022/12/08 06:33:59;;;;;;;34.75;22.08;;;6.40;99.90;;;;;;5064422;28;20035;-77
2022/12/08 06:36:27;;;;;;;29.88;19.50;;;6.40;99.90;;;;;;5068915;28;20050;-78
2022/12/08 06:38:53;;;;;;;32.08;21.50;;;6.50;99.90;;;;;;5073709;28;20024;-78
2022/12/08 06:41:19;;;;;;;35.95;22.75;;;6.50;99.90;;;;;;5067616;28;20104;-77
2022/12/08 06:43:46;;;;;;;36.47;22.55;;;6.50;99.90;;;;;;5074428;28;20031;-78
2022/12/08 06:46:17;;;;;;;30.58;21.05;;;6.50;99.90;;;;;;5065657;28;20029;-77
2022/12/08 06:48:43;;;;;;;33.10;19.67;;;6.50;99.90;;;;;;5065505;28;20021;-78
2022/12/08 06:51:14;;;;;;;28.55;18.23;;;6.60;99.90;;;;;;5062849;28;20035;-78
2022/12/08 06:53:41;;;;;;;35.92;20.23;;;6.60;99.90;;;;;;5070620;28;20403;-77
2022/12/08 06:56:08;;;;;;;31.45;19.05;;;6.60;99.90;;;;;;5059819;28;20033;-78
2022/12/08 06:58:34;;;;;;;29.83;18.77;;;6.60;99.90;;;;;;5064469;28;20055;-79
2022/12/08 07:01:05;;;;;;;28.98;19.27;;;6.60;99.90;;;;;;5072702;28;20039;-78
2022/12/08 07:03:31;;;;;;;32.40;18.05;;;6.60;99.90;;;;;;5064240;28;20020;-79
2022/12/08 07:05:57;;;;;;;27.90;19.15;;;6.60;99.90;;;;;;5073332;28;20051;-78
2022/12/08 07:08:23;;;;;;;40.63;21.48;;;6.60;99.90;;;;;;5069740;28;20055;-78
2022/12/08 07:10:49;;;;;;;36.78;21.58;;;6.60;99.90;;;;;;5074888;28;20025;-78
2022/12/08 07:13:15;;;;;;;34.13;21.60;;;6.60;99.90;;;;;;5073835;28;20077;-78
2022/12/08 07:15:40;;;;;;;32.08;19.77;;;6.60;99.90;;;;;;5070777;28;20037;-78
2022/12/08 07:18:06;;;;;;;26.35;15.15;;;6.60;99.90;;;;;;5075118;28;20021;-78
2022/12/08 07:20:32;;;;;;;31.25;19.73;;;6.60;99.90;;;;;;5066865;28;20017;-77
2022/12/08 07:22:58;;;;;;;32.25;20.17;;;6.60;99.90;;;;;;5076240;28;20040;-78
2022/12/08 07:25:24;;;;;;;33.83;18.73;;;6.60;99.90;;;;;;5065741;28;20646;-78
2022/12/08 07:27:51;;;;;;;35.13;20.08;;;6.60;99.90;;;;;;5076915;28;20032;-78
2022/12/08 07:30:17;;;;;;;28.02;17.52;;;6.60;99.90;;;;;;5072972;28;20021;-78
2022/12/08 07:32:43;;;;;;;25.70;16.48;;;6.60;99.90;;;;;;5072015;28;20055;-78
2022/12/08 07:35:10;;;;;;;31.60;18.83;;;6.70;99.90;;;;;;5076750;28;20028;-78
2022/12/08 07:37:37;;;;;;;29.92;19.80;;;6.60;99.90;;;;;;5074066;28;20024;-77
2022/12/08 07:40:04;;;;;;;67.10;32.70;;;6.70;99.90;;;;;;5069517;28;20028;-77
2022/12/08 07:42:30;;;;;;;47.80;24.17;;;6.70;99.90;;;;;;5068785;28;20036;-78
2022/12/08 07:44:56;;;;;;;39.08;22.25;;;6.70;99.90;;;;;;5071719;28;20020;-78
2022/12/08 07:47:22;;;;;;;86.70;43.05;;;6.70;99.90;;;;;;5071097;28;20028;-77
2022/12/08 07:49:48;;;;;;;267.95;138.93;;;6.70;99.90;;;;;;5069154;28;20088;-77
2022/12/08 07:52:14;;;;;;;32.20;20.48;;;6.80;99.90;;;;;;5068529;28;20029;-78
2022/12/08 07:54:40;;;;;;;32.42;19.20;;;6.80;99.90;;;;;;5078735;28;20024;-78
2022/12/08 07:57:05;;;;;;;29.00;18.55;;;6.80;99.90;;;;;;5064888;28;20106;-78
2022/12/08 07:59:32;;;;;;;37.03;20.17;;;6.80;99.90;;;;;;5062078;28;20032;-77
2022/12/08 08:01:57;;;;;;;32.42;18.77;;;6.80;99.90;;;;;;5069946;28;20083;-77
2022/12/08 08:04:23;;;;;;;41.85;29.48;;;6.80;99.90;;;;;;5076885;28;20020;-77
2022/12/08 08:06:49;;;;;;;32.90;20.33;;;6.90;99.90;;;;;;5072701;28;20029;-77
2022/12/08 08:09:15;;;;;;;31.90;18.33;;;6.90;99.90;;;;;;5076376;28;20025;-77
2022/12/08 08:11:41;;;;;;;34.50;18.83;;;6.90;99.90;;;;;;5073690;28;20566;-76
2022/12/08 08:14:07;;;;;;;38.20;23.73;;;7.00;99.90;;;;;;5076951;28;20032;-78
2022/12/08 08:16:33;;;;;;;53.55;38.72;;;7.00;99.90;;;;;;5073672;28;20024;-77
2022/12/08 08:18:58;;;;;;;33.35;21.70;;;7.00;99.90;;;;;;5075443;28;20024;-77
2022/12/08 08:21:24;;;;;;;35.42;20.45;;;7.00;99.90;;;;;;5071018;28;20021;-78
2022/12/08 08:23:50;;;;;;;29.45;19.10;;;7.10;99.90;;;;;;5077018;28;20027;-77
2022/12/08 08:26:16;;;;;;;32.88;18.95;;;7.10;99.90;;;;;;5074345;28;20079;-78
2022/12/08 08:28:44;;;;;;;36.50;20.90;;;7.10;99.90;;;;;;5073997;28;20021;-77
2022/12/08 08:31:11;;;;;;;36.72;20.55;;;7.10;99.90;;;;;;5073567;28;20048;-77
2022/12/08 08:33:37;;;;;;;88.75;42.58;;;7.20;99.90;;;;;;5071554;28;20048;-77
2022/12/08 08:36:09;;;;;;;39.83;22.17;;;7.20;99.90;;;;;;5071283;28;20036;-77
2022/12/08 08:38:38;;;;;;;33.10;19.75;;;7.30;99.90;;;;;;5075703;28;20012;-78
2022/12/08 08:41:09;;;;;;;28.20;18.73;;;7.30;99.90;;;;;;5069987;28;20067;-78
2022/12/08 08:43:35;;;;;;;;;;;7.40;99.90;;;;;;5073305;28;20028;-77
2022/12/08 08:46:03;;;;;;;34.47;19.00;;;7.40;99.90;;;;;;5074246;28;19966;-77
2022/12/08 08:48:30;;;;;;;43.08;22.83;;;7.50;99.90;;;;;;5075761;28;20390;-78
2022/12/08 08:50:56;;;;;;;341.50;119.20;;;7.50;99.90;;;;;;5072665;28;20025;-76
2022/12/08 08:53:23;;;;;;;31.35;18.73;;;7.60;99.90;;;;;;5069386;28;20094;-77
2022/12/08 08:55:50;;;;;;;38.67;22.63;;;7.70;99.90;;;;;;5069406;28;20020;-77
2022/12/08 08:58:16;;;;;;;37.17;19.58;;;7.70;99.90;;;;;;5074348;28;20107;-77
2022/12/08 09:00:42;;;;;;;76.93;31.42;;;7.70;99.90;;;;;;5072147;28;20048;-78
2022/12/08 09:03:07;;;;;;;35.97;19.02;;;7.70;99.90;;;;;;5071874;28;20047;-78
2022/12/08 09:05:33;;;;;;;28.45;16.98;;;7.70;99.90;;;;;;5072790;28;20510;-77
2022/12/08 09:07:59;;;;;;;17.73;12.73;;;7.70;99.90;;;;;;5068585;28;20062;-78
2022/12/08 09:10:26;;;;;;;61.38;29.88;;;7.70;99.90;;;;;;5071209;28;20077;-76
2022/12/08 09:12:51;;;;;;;27.42;17.10;;;7.70;99.90;;;;;;5069272;28;20031;-77
2022/12/08 09:15:19;;;;;;;26.67;17.23;;;7.70;99.90;;;;;;5070375;28;20024;-80
2022/12/08 09:17:45;;;;;;;26.58;17.45;;;7.70;99.90;;;;;;5072614;28;20017;-79
2022/12/08 09:20:11;;;;;;;25.00;16.63;;;7.60;99.90;;;;;;5070172;28;20110;-78
2022/12/08 09:22:37;;;;;;;39.97;24.05;;;7.60;99.90;;;;;;5069724;28;20081;-80
2022/12/08 09:25:03;;;;;;;31.25;17.88;;;7.60;99.90;;;;;;5074318;28;20120;-78
2022/12/08 09:27:30;;;;;;;32.63;17.73;;;7.70;99.90;;;;;;5069903;28;20481;-78
2022/12/08 09:29:56;;;;;;;29.60;18.17;;;7.70;99.90;;;;;;5054746;28;20488;-78
2022/12/08 09:32:22;;;;;;;23.60;17.35;;;7.70;99.90;;;;;;5073104;28;20135;-78
2022/12/08 09:34:48;;;;;;;23.20;17.75;;;7.70;99.90;;;;;;5069575;28;20020;-78
2022/12/08 09:37:13;;;;;;;21.40;15.68;;;7.80;99.90;;;;;;5071646;28;20044;-78
2022/12/08 09:39:39;;;;;;;28.13;18.30;;;7.80;99.90;;;;;;5071411;28;20021;-78
2022/12/08 09:42:06;;;;;;;57.42;35.38;;;7.80;99.90;;;;;;5066078;28;20392;-79
2022/12/08 09:44:45;;;;;;;24.17;16.50;;;7.80;99.90;;;;;;5072763;28;20036;-78
2022/12/08 09:47:36;;;;;;;28.98;17.38;;;7.90;99.90;;;;;;5070249;28;20044;-78
2022/12/08 09:50:10;;;;;;;;;;;7.90;99.90;;;;;;5059578;28;20045;-78
2022/12/08 09:52:51;;;;;;;25.35;16.90;;;7.90;99.90;;;;;;5089636;28;19908;-78
2022/12/08 09:55:37;;;;;;;39.60;21.23;;;7.90;99.90;;;;;;5070217;28;20017;-78
2022/12/08 09:58:08;;;;;;;20.05;14.80;;;7.90;99.90;;;;;;5073654;28;20020;-80
2022/12/08 10:00:34;;;;;;;358.98;149.10;;;8.00;99.90;;;;;;5073318;28;20021;-80
2022/12/08 10:03:00;;;;;;;168.05;70.57;;;8.00;99.90;;;;;;5074729;28;20071;-78
2022/12/08 10:05:30;;;;;;;57.53;29.55;;;8.10;99.90;;;;;;5072245;28;20425;-79
2022/12/08 10:08:13;;;;;;;180.85;76.97;;;8.10;99.90;;;;;;5072376;28;20032;-78
2022/12/08 10:10:46;;;;;;;19.67;15.90;;;8.10;99.90;;;;;;5073225;28;20390;-78
2022/12/08 10:13:54;;;;;;;25.45;17.10;;;8.20;99.90;;;;;;5072186;28;20103;-79
2022/12/08 10:16:41;;;;;;;217.80;84.90;;;8.20;99.90;;;;;;5068313;28;20032;-79
2022/12/08 10:19:27;;;;;;;73.28;35.28;;;8.30;99.90;;;;;;5073224;28;20025;-78
2022/12/08 10:21:56;;;;;;;32.83;18.30;;;8.40;99.90;;;;;;5069366;28;20421;-79
2022/12/08 10:24:31;;;;;;;29.67;17.75;;;8.40;99.90;;;;;;5075013;28;20048;-80
2022/12/08 10:26:57;;;;;;;49.05;23.15;;;8.50;99.90;;;;;;5072885;28;20385;-79
2022/12/08 10:29:23;;;;;;;22.35;12.73;;;8.50;99.90;;;;;;5071808;28;20107;-78
2022/12/08 10:31:48;;;;;;;23.77;15.55;;;8.50;99.90;;;;;;5073401;28;20481;-78
2022/12/08 10:34:22;;;;;;;46.15;30.17;;;8.60;99.90;;;;;;5069818;28;20079;-79
2022/12/08 10:36:54;;;;;;;17.50;11.82;;;8.70;99.90;;;;;;5067439;28;20025;-80
2022/12/08 10:39:44;;;;;;;16.20;11.18;;;8.70;99.90;;;;;;5071023;28;20492;-79
2022/12/08 10:42:13;;;;;;;20.00;12.20;;;8.80;99.90;;;;;;5069828;28;20024;-80
2022/12/08 10:44:58;;;;;;;17.77;11.05;;;8.80;99.90;;;;;;5072009;28;20489;-78
2022/12/08 10:47:26;;;;;;;16.75;11.80;;;8.80;99.90;;;;;;5070406;28;20024;-79
2022/12/08 10:50:07;;;;;;;17.25;10.85;;;8.90;99.90;;;;;;5073030;28;20092;-78
2022/12/08 10:52:40;;;;;;;15.48;10.43;;;8.90;99.90;;;;;;5071614;28;20048;-78
2022/12/08 10:55:15;;;;;;;13.38;9.77;;;8.90;99.90;;;;;;5071586;28;20050;-78
2022/12/08 10:57:41;;;;;;;14.98;10.18;;;8.90;99.90;;;;;;5071354;28;20017;-78
2022/12/08 11:00:14;;;;;;;16.85;11.07;;;8.80;99.90;;;;;;5069800;28;20039;-79
2022/12/08 11:03:00;;;;;;;14.55;9.90;;;8.90;99.90;;;;;;5073631;28;20016;-78
2022/12/08 11:05:31;;;;;;;14.70;9.57;;;8.90;99.90;;;;;;5070998;28;20025;-78
2022/12/08 11:07:57;;;;;;;11.93;8.95;;;8.90;99.90;;;;;;5071241;28;20020;-78
2022/12/08 11:10:35;;;;;;;14.70;10.13;;;8.80;99.90;;;;;;5071093;28;20408;-78
2022/12/08 11:13:04;;;;;;;16.17;9.20;;;8.90;99.90;;;;;;5072430;28;20052;-78
2022/12/08 11:15:35;;;;;;;12.30;9.73;;;8.90;99.90;;;;;;5054886;28;20043;-78
2022/12/08 11:18:08;;;;;;;12.73;8.15;;;9.00;99.90;;;;;;5072528;28;20028;-79
2022/12/08 11:20:40;;;;;;;11.27;9.63;;;9.10;99.90;;;;;;5069605;28;20119;-81
2022/12/08 11:23:20;;;;;;;10.88;8.73;;;9.00;99.90;;;;;;5071821;28;20476;-79
2022/12/08 11:25:47;;;;;;;11.48;9.43;;;9.00;99.90;;;;;;5073118;28;20036;-79
2022/12/08 11:28:13;;;;;;;16.02;9.95;;;9.10;99.90;;;;;;5070851;28;20484;-78
2022/12/08 11:30:45;;;;;;;18.20;10.57;;;9.10;99.90;;;;;;5072552;28;20094;-79
2022/12/08 11:33:23;;;;;;;154.60;52.80;;;9.10;99.90;;;;;;5068642;28;20103;-80
2022/12/08 11:35:56;;;;;;;85.57;33.40;;;9.10;99.90;;;;;;5066175;28;20425;-80
2022/12/08 11:38:25;;;;;;;15.93;9.02;;;9.10;99.90;;;;;;5070440;28;20549;-78
2022/12/08 11:41:02;;;;;;;12.80;9.20;;;9.00;99.90;;;;;;5067033;28;20032;-78
2022/12/08 11:43:46;;;;;;;16.58;10.90;;;9.00;99.90;;;;;;5071557;28;20017;-78
2022/12/08 11:46:45;;;;;;;97.10;40.67;;;9.00;99.90;;;;;;5074576;28;20032;-79
2022/12/08 11:49:13;;;;;;;25.80;12.68;;;9.00;99.90;;;;;;5090057;28;20028;-78
2022/12/08 11:51:46;;;;;;;21.45;13.95;;;9.10;99.90;;;;;;5071869;28;20056;-78
2022/12/08 11:54:37;;;;;;;21.50;11.25;;;9.10;99.90;;;;;;5073936;28;20024;-78
2022/12/08 11:57:07;;;;;;;57.00;27.92;;;9.10;99.90;;;;;;5075259;28;20032;-78
2022/12/08 11:59:40;;;;;;;28.47;17.23;;;9.20;99.90;;;;;;5074451;28;20020;-78
2022/12/08 12:02:21;;;;;;;34.13;18.98;;;9.20;99.90;;;;;;5074284;28;20035;-78
2022/12/08 12:04:56;;;;;;;71.53;32.08;;;9.20;99.90;;;;;;5074114;28;20020;-79
2022/12/08 12:07:25;;;;;;;13.77;9.95;;;9.20;99.90;;;;;;5073614;28;20117;-78
2022/12/08 12:10:02;;;;;;;16.38;8.88;;;9.20;99.90;;;;;;5071039;28;20024;-78
2022/12/08 12:12:56;;;;;;;24.08;15.82;;;9.20;99.90;;;;;;5071758;28;20033;-78
2022/12/08 12:15:47;;;;;;;32.75;19.25;;;9.20;99.90;;;;;;5070905;28;20520;-78
2022/12/08 12:18:33;;;;;;;12.23;8.50;;;9.20;99.90;;;;;;5072543;28;20440;-78
2022/12/08 12:21:06;;;;;;;10.23;8.40;;;9.10;99.90;;;;;;5070306;28;20055;-78
2022/12/08 12:23:40;;;;;;;21.55;14.30;;;9.00;99.90;;;;;;5066645;28;20074;-79
2022/12/08 12:26:09;;;;;;;16.88;10.85;;;9.00;99.90;;;;;;5073149;28;20473;-78
2022/12/08 12:28:55;;;;;;;19.92;13.13;;;9.00;99.90;;;;;;5066887;28;20397;-78
2022/12/08 12:31:34;;;;;;;61.67;37.33;;;9.00;99.90;;;;;;5070609;28;20032;-79
2022/12/08 12:34:13;;;;;;;15.40;9.20;;;9.00;99.90;;;;;;5074624;28;20029;-78
2022/12/08 12:36:57;;;;;;;14.60;9.90;;;8.90;99.90;;;;;;5072473;28;20051;-78
2022/12/08 12:39:30;;;;;;;17.38;9.65;;;8.90;99.90;;;;;;5072327;28;20039;-77
2022/12/08 12:41:59;;;;;;;15.57;11.10;;;8.90;99.90;;;;;;5072846;28;20070;-77
2022/12/08 12:44:37;;;;;;;17.65;10.32;;;8.90;99.90;;;;;;5075589;28;20025;-78
2022/12/08 12:47:10;;;;;;;15.75;9.27;;;8.90;99.90;;;;;;5071839;28;20048;-78
2022/12/08 12:49:38;;;;;;;25.88;17.90;;;8.90;99.90;;;;;;5075003;28;20028;-78
2022/12/08 12:52:22;;;;;;;11.95;9.18;;;8.90;99.90;;;;;;5075602;28;20039;-79
2022/12/08 12:54:48;;;;;;;21.17;14.02;;;8.80;99.90;;;;;;5075388;28;20048;-78
2022/12/08 12:57:17;;;;;;;12.90;10.65;;;8.80;99.90;;;;;;5069505;28;20109;-78